createdAt,value
2019-05-29T00:02:12.143Z,100703.00
2019-05-29T00:04:41.835Z,100706.00
2019-05-29T00:07:12.213Z,100707.00
2019-05-29T00:09:42.053Z,100706.00
2019-05-29T00:12:17.221Z,100702.00
2019-05-29T00:14:43.187Z,100712.00
2019-05-29T00:17:12.877Z,100719.00
2019-05-29T00:19:42.613Z,100723.00
2019-05-29T00:22:12.430Z,100724.00
2019-05-29T00:24:42.254Z,100732.00
2019-05-29T00:27:12.884Z,100725.00
2019-05-29T00:29:43.407Z,100725.00
2019-05-29T00:32:13.487Z,100726.00
2019-05-29T00:34:43.326Z,100730.00
2019-05-29T00:37:12.996Z,100733.00
2019-05-29T00:39:42.911Z,100730.00
2019-05-29T00:42:13.257Z,100724.00
2019-05-29T00:44:44.394Z,100718.00
2019-05-29T00:47:14.167Z,100727.00
2019-05-29T00:49:43.906Z,100732.00
2019-05-29T00:52:14.311Z,100740.00
2019-05-29T00:54:44.251Z,100729.00
2019-05-29T00:57:15.331Z,100731.00
2019-05-29T00:59:45.060Z,100738.00
2019-05-29T01:02:15.872Z,100742.00
2019-05-29T01:04:45.732Z,100751.00
2019-05-29T01:07:16.290Z,100739.00
2019-05-29T01:09:46.099Z,100762.00
2019-05-29T01:12:17.076Z,100766.00
2019-05-29T01:14:50.329Z,100761.00
2019-05-29T01:17:18.278Z,100763.00
2019-05-29T01:19:47.960Z,100766.00
2019-05-29T01:22:18.687Z,100765.00
2019-05-29T01:24:48.461Z,100777.00
2019-05-29T01:27:18.816Z,100772.00
2019-05-29T01:29:56.193Z,100783.00
2019-05-29T01:32:25.854Z,100783.00
2019-05-29T01:34:55.551Z,100788.00
2019-05-29T01:37:26.416Z,100797.00
2019-05-29T01:39:56.151Z,100800.00
2019-05-29T01:42:26.006Z,100814.00
2019-05-29T01:45:07.338Z,100804.00
2019-05-29T01:47:28.038Z,100810.00
2019-05-29T01:49:57.851Z,100820.00
2019-05-29T01:52:28.095Z,100811.00
2019-05-29T01:54:57.843Z,100808.00
2019-05-29T01:57:28.028Z,100833.00
2019-05-29T01:59:57.758Z,100828.00
2019-05-29T02:02:28.249Z,100823.00
2019-05-29T02:04:57.952Z,100832.00
2019-05-29T02:07:28.280Z,100839.00
2019-05-29T02:09:57.926Z,100846.00
2019-05-29T02:12:27.642Z,100845.00
2019-05-29T02:14:57.390Z,100847.00
2019-05-29T02:17:28.021Z,100844.00
2019-05-29T02:19:57.778Z,100845.00
2019-05-29T02:22:27.509Z,100855.00
2019-05-29T02:24:57.204Z,100855.00
2019-05-29T02:27:27.743Z,100868.00
2019-05-29T02:29:57.479Z,100862.00
2019-05-29T02:32:27.915Z,100869.00
2019-05-29T02:34:57.628Z,100868.00
2019-05-29T02:37:28.936Z,100865.00
2019-05-29T02:39:58.835Z,100874.00
2019-05-29T02:42:29.189Z,100865.00
2019-05-29T02:44:59.650Z,100875.00
2019-05-29T02:47:30.243Z,100877.00
2019-05-29T02:50:00.366Z,100880.00
2019-05-29T02:52:30.773Z,100876.00
2019-05-29T02:55:00.977Z,100892.00
2019-05-29T02:57:31.052Z,100887.00
2019-05-29T03:00:01.040Z,100890.00
2019-05-29T03:02:32.086Z,100898.00
2019-05-29T03:05:02.306Z,100908.00
2019-05-29T03:07:32.747Z,100909.00
2019-05-29T03:10:02.716Z,100909.00
2019-05-29T03:12:33.731Z,100910.00
2019-05-29T03:15:04.323Z,100924.00
2019-05-29T03:17:34.034Z,100923.00
2019-05-29T03:20:03.751Z,100929.00
2019-05-29T03:22:35.129Z,100926.00
2019-05-29T03:25:05.785Z,100944.00
2019-05-29T03:27:35.467Z,100951.00
2019-05-29T03:30:06.189Z,100936.00
2019-05-29T03:32:43.402Z,100944.00
2019-05-29T03:35:07.701Z,100960.00
2019-05-29T03:37:38.788Z,100969.00
2019-05-29T03:40:28.983Z,100960.00
2019-05-29T03:42:59.420Z,100970.00
2019-05-29T03:45:31.094Z,100985.00
2019-05-29T03:48:00.930Z,100982.00
2019-05-29T03:50:32.521Z,100987.00
2019-05-29T03:53:02.526Z,100998.00
2019-05-29T03:55:33.685Z,101000.00
2019-05-29T03:58:23.009Z,101006.00
2019-05-29T04:00:52.804Z,101013.00
2019-05-29T04:03:22.475Z,101024.00
2019-05-29T04:05:52.451Z,101026.00
2019-05-29T04:08:22.239Z,101028.00
2019-05-29T04:10:52.545Z,101034.00
2019-05-29T04:13:22.996Z,101037.00
2019-05-29T04:15:54.921Z,101034.00
2019-05-29T04:18:25.030Z,101039.00
2019-05-29T04:20:55.577Z,101042.00
2019-05-29T04:23:29.907Z,101048.00
2019-05-29T04:26:02.010Z,101052.00
2019-05-29T04:28:34.492Z,101055.00
2019-05-29T04:31:04.507Z,101050.00
2019-05-29T04:33:34.934Z,101062.00
2019-05-29T04:36:05.756Z,101060.00
2019-05-29T04:38:37.356Z,101066.00
2019-05-29T04:41:06.855Z,101062.00
2019-05-29T04:43:37.653Z,101071.00
2019-05-29T04:46:07.955Z,101070.00
2019-05-29T04:48:39.991Z,101083.00
2019-05-29T04:51:09.346Z,101084.00
2019-05-29T04:53:39.877Z,101088.00
2019-05-29T04:56:10.085Z,101095.00
2019-05-29T04:58:39.815Z,101095.00
2019-05-29T05:01:09.534Z,101094.00
2019-05-29T05:03:39.522Z,101106.00
2019-05-29T05:06:09.321Z,101103.00
2019-05-29T05:08:39.699Z,101121.00
2019-05-29T05:11:11.220Z,101118.00
2019-05-29T05:13:41.029Z,101123.00
2019-05-29T05:16:10.776Z,101127.00
2019-05-29T05:18:40.463Z,101134.00
2019-05-29T05:21:10.222Z,101142.00
2019-05-29T05:23:40.582Z,101141.00
2019-05-29T05:26:10.692Z,101149.00
2019-05-29T05:28:43.299Z,101152.00
2019-05-29T05:31:11.930Z,101146.00
2019-05-29T05:33:41.974Z,101153.00
2019-05-29T05:36:11.676Z,101152.00
2019-05-29T05:38:41.585Z,101166.00
2019-05-29T05:41:12.029Z,101167.00
2019-05-29T05:43:41.700Z,101174.00
2019-05-29T05:46:11.579Z,101175.00
2019-05-29T05:48:41.734Z,101189.00
2019-05-29T05:51:11.509Z,101192.00
2019-05-29T05:53:41.772Z,101195.00
2019-05-29T05:56:11.987Z,101205.00
2019-05-29T05:58:42.395Z,101204.00
2019-05-29T06:01:12.386Z,101209.00
2019-05-29T06:03:42.690Z,101220.00
2019-05-29T06:06:12.601Z,101225.00
2019-05-29T06:08:42.641Z,101230.00
2019-05-29T06:11:12.461Z,101229.00
2019-05-29T06:13:42.785Z,101226.00
2019-05-29T06:16:12.680Z,101234.00
2019-05-29T06:18:43.002Z,101239.00
2019-05-29T06:21:13.026Z,101239.00
2019-05-29T06:23:43.518Z,101240.00
2019-05-29T06:26:13.939Z,101242.00
2019-05-29T06:28:43.866Z,101211.00
2019-05-29T06:31:13.815Z,101250.00
2019-05-29T06:33:44.086Z,101255.00
2019-05-29T06:36:13.939Z,101249.00
2019-05-29T06:38:44.248Z,101263.00
2019-05-29T06:41:14.627Z,101266.00
2019-05-29T06:43:44.801Z,101262.00
2019-05-29T06:46:14.566Z,101267.00
2019-05-29T06:48:56.276Z,101271.00
2019-05-29T06:51:15.693Z,101279.00
2019-05-29T06:53:45.412Z,101278.00
2019-05-29T06:56:16.250Z,101278.00
2019-05-29T06:58:46.686Z,101282.00
2019-05-29T07:01:16.350Z,101282.00
2019-05-29T07:03:46.179Z,101289.00
2019-05-29T07:06:15.867Z,101284.00
2019-05-29T07:08:48.269Z,101298.00
2019-05-29T07:11:17.121Z,101292.00
2019-05-29T07:14:06.134Z,101297.00
2019-05-29T07:16:45.321Z,101293.00
2019-05-29T07:19:24.849Z,101302.00
2019-05-29T07:21:39.247Z,101308.00
2019-05-29T07:24:08.997Z,101313.00
2019-05-29T07:26:38.986Z,101314.00
2019-05-29T07:29:08.864Z,101325.00
2019-05-29T07:31:38.877Z,101319.00
2019-05-29T07:34:08.701Z,101324.00
2019-05-29T07:36:39.785Z,101328.00
2019-05-29T07:39:09.689Z,101330.00
2019-05-29T07:41:39.608Z,101328.00
2019-05-29T07:44:09.751Z,101331.00
2019-05-29T07:46:40.083Z,101337.00
2019-05-29T07:49:38.560Z,101343.00
2019-05-29T07:52:00.616Z,101342.00
2019-05-29T07:54:30.341Z,101346.00
2019-05-29T07:57:00.197Z,101356.00
2019-05-29T07:59:29.920Z,101357.00
2019-05-29T08:01:59.764Z,101355.00
2019-05-29T08:04:29.478Z,101356.00
2019-05-29T08:06:59.291Z,101348.00
2019-05-29T08:09:29.026Z,101359.00
2019-05-29T08:11:59.102Z,101362.00
2019-05-29T08:14:28.808Z,101359.00
2019-05-29T08:16:58.526Z,101377.00
2019-05-29T08:19:28.488Z,101367.00
2019-05-29T08:21:58.336Z,101384.00
2019-05-29T08:24:28.050Z,101377.00
2019-05-29T08:27:17.032Z,101378.00
2019-05-29T08:29:47.126Z,101379.00
2019-05-29T08:32:17.178Z,101384.00
2019-05-29T08:34:47.137Z,101377.00
2019-05-29T08:37:16.898Z,101384.00
2019-05-29T08:39:47.494Z,101385.00
2019-05-29T08:42:23.145Z,101387.00
2019-05-29T08:44:50.082Z,101395.00
2019-05-29T08:47:19.855Z,101388.00
2019-05-29T08:49:53.174Z,101401.00
2019-05-29T08:52:21.059Z,101399.00
2019-05-29T08:54:52.210Z,101402.00
2019-05-29T08:57:22.157Z,101405.00
2019-05-29T08:59:52.693Z,101408.00
2019-05-29T09:02:22.595Z,101413.00
2019-05-29T09:04:54.729Z,101420.00
2019-05-29T09:07:23.730Z,101415.00
2019-05-29T09:09:53.446Z,101416.00
2019-05-29T09:12:23.430Z,101421.00
2019-05-29T09:14:53.522Z,101420.00
2019-05-29T09:17:24.308Z,101419.00
2019-05-29T09:19:53.968Z,101424.00
2019-05-29T09:22:23.678Z,101425.00
2019-05-29T09:24:53.329Z,101417.00
2019-05-29T09:27:23.305Z,101419.00
2019-05-29T09:29:53.117Z,101423.00
2019-05-29T09:32:47.532Z,101429.00
2019-05-29T09:34:54.245Z,101437.00
2019-05-29T09:37:24.592Z,101440.00
2019-05-29T09:39:54.767Z,101438.00
2019-05-29T09:42:25.454Z,101432.00
2019-05-29T09:44:55.172Z,101439.00
2019-05-29T09:47:26.257Z,101439.00
2019-05-29T09:49:56.168Z,101450.00
2019-05-29T09:52:25.828Z,101449.00
2019-05-29T09:54:56.174Z,101454.00
2019-05-29T09:57:25.961Z,101454.00
2019-05-29T09:59:57.979Z,101461.00
2019-05-29T10:02:27.112Z,101465.00
2019-05-29T10:04:58.107Z,101459.00
2019-05-29T10:07:28.226Z,101471.00
2019-05-29T10:09:59.316Z,101464.00
2019-05-29T10:12:29.405Z,101463.00
2019-05-29T10:15:00.904Z,101469.00
2019-05-29T10:17:30.554Z,101469.00
2019-05-29T10:20:00.779Z,101467.00
2019-05-29T10:22:30.540Z,101469.00
2019-05-29T10:25:01.846Z,101481.00
2019-05-29T10:27:31.763Z,101478.00
2019-05-29T10:30:01.705Z,101477.00
2019-05-29T10:32:31.437Z,101472.00
2019-05-29T10:35:01.134Z,101481.00
2019-05-29T10:37:30.847Z,101476.00
2019-05-29T10:40:00.577Z,101475.00
2019-05-29T10:42:30.479Z,101476.00
2019-05-29T10:45:00.347Z,101476.00
2019-05-29T10:47:30.386Z,101472.00
2019-05-29T10:50:00.067Z,101473.00
2019-05-29T10:52:29.798Z,101487.00
2019-05-29T10:54:59.538Z,101478.00
2019-05-29T10:57:29.279Z,101481.00
2019-05-29T10:59:59.393Z,101484.00
2019-05-29T11:02:29.123Z,101497.00
2019-05-29T11:04:59.736Z,101495.00
2019-05-29T11:07:29.852Z,101496.00
2019-05-29T11:09:59.605Z,101493.00
2019-05-29T11:12:29.877Z,101493.00
2019-05-29T11:14:59.792Z,101486.00
2019-05-29T11:17:29.485Z,101493.00
2019-05-29T11:19:59.162Z,101488.00
2019-05-29T11:22:28.896Z,101491.00
2019-05-29T11:25:20.627Z,101493.00
2019-05-29T11:27:30.412Z,101503.00
2019-05-29T11:30:00.334Z,101494.00
2019-05-29T11:32:29.995Z,101492.00
2019-05-29T11:34:59.735Z,101496.00
2019-05-29T11:37:29.426Z,101500.00
2019-05-29T11:39:59.129Z,101504.00
2019-05-29T11:42:29.150Z,101494.00
2019-05-29T11:44:59.573Z,101498.00
2019-05-29T11:47:29.742Z,101509.00
2019-05-29T11:50:10.353Z,101500.00
2019-05-29T11:52:42.280Z,101515.00
2019-05-29T11:55:04.703Z,101503.00
2019-05-29T11:57:34.175Z,101503.00
2019-05-29T12:00:15.030Z,101499.00
2019-05-29T12:02:36.365Z,101510.00
2019-05-29T12:05:09.253Z,101509.00
2019-05-29T12:07:39.013Z,101508.00
2019-05-29T12:10:10.325Z,101511.00
2019-05-29T12:12:40.158Z,101509.00
2019-05-29T12:15:15.216Z,101512.00
2019-05-29T12:17:42.355Z,101508.00
2019-05-29T12:20:27.227Z,101509.00
2019-05-29T12:23:11.155Z,101514.00
2019-05-29T12:25:16.727Z,101515.00
2019-05-29T12:27:46.437Z,101518.00
2019-05-29T12:30:17.380Z,101527.00
2019-05-29T12:32:47.341Z,101522.00
2019-05-29T12:35:17.342Z,101520.00
2019-05-29T12:37:47.066Z,101515.00
2019-05-29T12:40:17.183Z,101514.00
2019-05-29T12:42:46.906Z,101515.00
2019-05-29T12:45:17.686Z,101526.00
2019-05-29T12:47:47.374Z,101528.00
2019-05-29T12:50:18.107Z,101541.00
2019-05-29T12:52:47.849Z,101531.00
2019-05-29T12:55:19.273Z,101534.00
2019-05-29T12:57:48.961Z,101532.00
2019-05-29T13:00:20.192Z,101539.00
2019-05-29T13:02:49.897Z,101545.00
2019-05-29T13:05:21.017Z,101539.00
2019-05-29T13:07:50.885Z,101543.00
2019-05-29T13:10:30.543Z,101544.00
2019-05-29T13:12:58.932Z,101543.00
2019-05-29T13:15:26.933Z,101542.00
2019-05-29T13:18:02.653Z,101539.00
2019-05-29T13:20:28.134Z,101554.00
2019-05-29T13:22:59.486Z,101550.00
2019-05-29T13:25:29.367Z,101539.00
2019-05-29T13:27:59.834Z,101534.00
2019-05-29T13:30:30.604Z,101534.00
2019-05-29T13:33:03.683Z,101540.00
2019-05-29T13:35:32.026Z,101549.00
2019-05-29T13:38:03.154Z,101555.00
2019-05-29T13:40:33.081Z,101555.00
2019-05-29T13:43:11.457Z,101548.00
2019-05-29T13:45:34.301Z,101547.00
2019-05-29T13:48:05.415Z,101544.00
2019-05-29T13:50:35.231Z,101553.00
2019-05-29T13:53:05.496Z,101543.00
2019-05-29T13:55:35.429Z,101552.00
2019-05-29T13:58:05.806Z,101544.00
2019-05-29T14:00:35.726Z,101550.00
2019-05-29T14:03:07.086Z,101554.00
2019-05-29T14:05:37.521Z,101561.00
2019-05-29T14:08:07.337Z,101518.00
2019-05-29T14:10:37.346Z,101553.00
2019-05-29T14:13:07.465Z,101553.00
2019-05-29T14:15:37.227Z,101544.00
2019-05-29T14:18:07.206Z,101543.00
2019-05-29T14:20:37.177Z,101549.00
2019-05-29T14:23:07.501Z,101543.00
2019-05-29T14:25:37.260Z,101552.00
2019-05-29T14:28:07.041Z,101546.00
2019-05-29T14:30:36.910Z,101545.00
2019-05-29T14:33:07.321Z,101544.00
2019-05-29T14:35:38.106Z,101546.00
2019-05-29T14:38:10.891Z,101545.00
2019-05-29T14:40:39.137Z,101546.00
2019-05-29T14:43:12.797Z,101549.00
2019-05-29T14:45:40.545Z,101549.00
2019-05-29T14:48:10.252Z,101544.00
2019-05-29T14:50:39.962Z,101547.00
2019-05-29T14:53:11.281Z,101547.00
2019-05-29T14:55:41.120Z,101551.00
2019-05-29T14:58:11.912Z,101557.00
2019-05-29T15:00:41.557Z,101557.00
2019-05-29T15:03:11.578Z,101568.00
2019-05-29T15:05:41.243Z,101566.00
2019-05-29T15:08:12.025Z,101569.00
2019-05-29T15:10:41.743Z,101556.00
2019-05-29T15:13:13.148Z,101551.00
2019-05-29T15:15:42.854Z,101561.00
2019-05-29T15:18:15.110Z,101580.00
2019-05-29T15:20:43.973Z,101574.00
2019-05-29T15:23:13.652Z,101579.00
2019-05-29T15:25:43.565Z,101578.00
2019-05-29T15:28:14.586Z,101581.00
2019-05-29T15:30:45.154Z,101587.00
2019-05-29T15:33:16.756Z,101576.00
2019-05-29T15:35:46.547Z,101573.00
2019-05-29T15:38:17.132Z,101564.00
2019-05-29T15:40:46.818Z,101569.00
2019-05-29T15:43:17.270Z,101558.00
2019-05-29T15:45:47.391Z,101563.00
2019-05-29T15:48:17.509Z,101568.00
2019-05-29T15:50:47.336Z,101572.00
2019-05-29T15:53:17.348Z,101571.00
2019-05-29T15:55:47.038Z,101574.00
2019-05-29T15:58:17.989Z,101579.00
2019-05-29T16:00:48.488Z,101561.00
2019-05-29T16:03:18.183Z,101560.00
2019-05-29T16:05:47.842Z,101566.00
2019-05-29T16:08:18.272Z,101563.00
2019-05-29T16:10:48.385Z,101560.00
2019-05-29T16:13:19.091Z,101565.00
2019-05-29T16:15:48.947Z,101571.00
2019-05-29T16:18:27.112Z,101569.00
2019-05-29T16:20:50.062Z,101572.00
2019-05-29T16:23:32.316Z,101578.00
2019-05-29T16:25:51.485Z,101582.00
2019-05-29T16:28:21.525Z,101578.00
2019-05-29T16:30:51.647Z,101587.00
2019-05-29T16:33:21.447Z,101588.00
2019-05-29T16:35:51.189Z,101600.00
2019-05-29T16:38:21.854Z,101597.00
2019-05-29T16:40:51.540Z,101600.00
2019-05-29T16:43:22.405Z,101594.00
2019-05-29T16:45:52.571Z,101605.00
2019-05-29T16:48:22.905Z,101602.00
2019-05-29T16:50:52.674Z,101604.00
2019-05-29T16:53:23.250Z,101606.00
2019-05-29T16:55:54.363Z,101615.00
2019-05-29T16:58:24.577Z,101614.00
2019-05-29T17:00:54.281Z,101608.00
2019-05-29T17:03:23.990Z,101618.00
2019-05-29T17:05:53.683Z,101616.00
2019-05-29T17:08:24.607Z,101621.00
2019-05-29T17:10:54.434Z,101620.00
2019-05-29T17:13:24.782Z,101626.00
2019-05-29T17:15:54.587Z,101622.00
2019-05-29T17:18:25.001Z,101619.00
2019-05-29T17:20:54.896Z,101624.00
2019-05-29T17:23:25.099Z,101615.00
2019-05-29T17:26:09.593Z,101627.00
2019-05-29T17:28:28.258Z,101620.00
2019-05-29T17:31:02.021Z,101628.00
2019-05-29T17:33:29.365Z,101629.00
2019-05-29T17:35:59.846Z,101632.00
2019-05-29T17:38:29.737Z,101627.00
2019-05-29T17:40:59.452Z,101633.00
2019-05-29T17:43:29.222Z,101627.00
2019-05-29T17:45:58.913Z,101634.00
2019-05-29T17:48:28.602Z,101636.00
2019-05-29T17:50:58.566Z,101644.00
2019-05-29T17:53:28.239Z,101640.00
2019-05-29T17:55:58.007Z,101644.00
2019-05-29T17:58:27.745Z,101638.00
2019-05-29T18:00:57.539Z,101638.00
2019-05-29T18:03:27.208Z,101642.00
2019-05-29T18:05:57.011Z,101647.00
2019-05-29T18:08:26.992Z,101645.00
2019-05-29T18:10:56.781Z,101648.00
2019-05-29T18:13:27.436Z,101644.00
2019-05-29T18:15:57.221Z,101649.00
2019-05-29T18:18:27.851Z,101648.00
2019-05-29T18:20:57.672Z,101649.00
2019-05-29T18:23:28.184Z,101650.00
2019-05-29T18:25:58.040Z,101654.00
2019-05-29T18:28:28.286Z,101659.00
2019-05-29T18:30:58.148Z,101653.00
2019-05-29T18:33:28.941Z,101655.00
2019-05-29T18:35:58.736Z,101660.00
2019-05-29T18:38:28.903Z,101656.00
2019-05-29T18:40:58.610Z,101658.00
2019-05-29T18:43:28.769Z,101669.00
2019-05-29T18:45:58.650Z,101669.00
2019-05-29T18:48:29.504Z,101668.00
2019-05-29T18:50:59.462Z,101672.00
2019-05-29T18:53:29.239Z,101666.00
2019-05-29T18:55:58.933Z,101674.00
2019-05-29T18:58:28.650Z,101669.00
2019-05-29T19:00:58.640Z,101674.00
2019-05-29T19:03:29.527Z,101681.00
2019-05-29T19:06:18.640Z,101679.00
2019-05-29T19:09:08.062Z,101679.00
2019-05-29T19:11:37.838Z,101684.00
2019-05-29T19:14:07.932Z,101687.00
2019-05-29T19:16:39.638Z,101686.00
2019-05-29T19:19:09.159Z,101693.00
2019-05-29T19:21:38.852Z,101689.00
2019-05-29T19:24:08.524Z,101696.00
2019-05-29T19:26:38.482Z,101706.00
2019-05-29T19:29:08.509Z,101699.00
2019-05-29T19:31:41.870Z,101707.00
2019-05-29T19:34:09.925Z,101713.00
2019-05-29T19:36:39.881Z,101714.00
2019-05-29T19:39:09.769Z,101712.00
2019-05-29T19:41:39.520Z,101705.00
2019-05-29T19:44:09.206Z,101720.00
2019-05-29T19:46:53.145Z,101715.00
2019-05-29T19:49:10.708Z,101726.00
2019-05-29T19:51:40.398Z,101721.00
2019-05-29T19:54:10.084Z,101718.00
2019-05-29T19:56:39.754Z,101725.00
2019-05-29T19:59:09.455Z,101723.00
2019-05-29T20:01:40.619Z,101732.00
2019-05-29T20:04:10.551Z,101737.00
2019-05-29T20:06:40.230Z,101728.00
2019-05-29T20:09:10.177Z,101737.00
2019-05-29T20:11:39.869Z,101743.00
2019-05-29T20:14:09.555Z,101749.00
2019-05-29T20:16:39.441Z,101750.00
2019-05-29T20:19:09.165Z,101748.00
2019-05-29T20:21:39.044Z,101750.00
2019-05-29T20:24:08.791Z,101751.00
2019-05-29T20:26:39.419Z,101753.00
2019-05-29T20:29:09.193Z,101757.00
2019-05-29T20:31:38.905Z,101763.00
2019-05-29T20:34:08.576Z,101769.00
2019-05-29T20:36:38.842Z,101776.00
2019-05-29T20:39:09.714Z,101778.00
2019-05-29T20:41:42.166Z,101773.00
2019-05-29T20:44:11.132Z,101769.00
2019-05-29T20:46:40.825Z,101769.00
2019-05-29T20:49:10.492Z,101771.00
2019-05-29T20:51:40.453Z,101773.00
2019-05-29T20:54:10.241Z,101773.00
2019-05-29T20:56:39.955Z,101774.00
2019-05-29T20:59:09.661Z,101771.00
2019-05-29T21:01:44.231Z,101771.00
2019-05-29T21:04:10.885Z,101775.00
2019-05-29T21:06:40.755Z,101775.00
2019-05-29T21:09:10.417Z,101774.00
2019-05-29T21:11:41.717Z,101777.00
2019-05-29T21:14:11.510Z,101781.00
2019-05-29T21:16:41.883Z,101777.00
2019-05-29T21:19:11.646Z,101767.00
2019-05-29T21:21:42.448Z,101780.00
2019-05-29T21:24:12.255Z,101786.00
2019-05-29T21:26:43.139Z,101785.00
2019-05-29T21:29:13.083Z,101781.00
2019-05-29T21:31:43.726Z,101785.00
2019-05-29T21:34:13.748Z,101789.00
2019-05-29T21:36:44.232Z,101782.00
2019-05-29T21:39:14.028Z,101793.00
2019-05-29T21:41:44.662Z,101787.00
2019-05-29T21:44:14.321Z,101791.00
2019-05-29T21:46:45.163Z,101790.00
2019-05-29T21:49:14.916Z,101795.00
2019-05-29T21:51:45.763Z,101798.00
2019-05-29T21:54:15.708Z,101789.00
2019-05-29T21:56:45.831Z,101792.00
2019-05-29T21:59:15.679Z,101785.00
2019-05-29T22:01:46.299Z,101794.00
2019-05-29T22:04:16.112Z,101797.00
2019-05-29T22:06:46.805Z,101803.00
2019-05-29T22:09:16.772Z,101799.00
2019-05-29T22:11:46.493Z,101787.00
2019-05-29T22:14:16.231Z,101804.00
2019-05-29T22:16:46.332Z,101807.00
2019-05-29T22:19:16.602Z,101803.00
2019-05-29T22:21:46.611Z,101807.00
2019-05-29T22:24:16.563Z,101809.00
2019-05-29T22:26:46.531Z,101797.00
2019-05-29T22:29:18.493Z,101811.00
2019-05-29T22:31:47.758Z,101811.00
2019-05-29T22:34:17.496Z,101813.00
2019-05-29T22:36:47.203Z,101801.00
2019-05-29T22:39:16.922Z,101813.00
2019-05-29T22:41:46.650Z,101811.00
2019-05-29T22:44:16.341Z,101817.00
2019-05-29T22:46:46.043Z,101817.00
2019-05-29T22:49:15.786Z,101818.00
2019-05-29T22:51:45.818Z,101812.00
2019-05-29T22:54:15.539Z,101811.00
2019-05-29T22:56:45.216Z,101815.00
2019-05-29T22:59:29.100Z,101806.00
2019-05-29T23:01:46.435Z,101812.00
2019-05-29T23:04:16.473Z,101806.00
2019-05-29T23:06:46.213Z,101807.00
2019-05-29T23:09:15.921Z,101807.00
2019-05-29T23:11:45.931Z,101804.00
2019-05-29T23:14:15.634Z,101807.00
2019-05-29T23:16:45.706Z,101815.00
2019-05-29T23:19:15.482Z,101782.00
2019-05-29T23:21:45.242Z,101804.00
2019-05-29T23:24:14.949Z,101809.00
2019-05-29T23:26:44.760Z,101815.00
2019-05-29T23:29:14.747Z,101803.00
2019-05-29T23:31:44.759Z,101795.00
2019-05-29T23:34:14.479Z,101805.00
2019-05-29T23:36:44.181Z,101799.00
2019-05-29T23:39:13.888Z,101799.00
2019-05-29T23:41:43.629Z,101801.00
2019-05-29T23:44:13.305Z,101793.00
2019-05-29T23:46:43.026Z,101799.00
2019-05-29T23:49:12.769Z,101797.00
2019-05-29T23:51:42.488Z,101796.00
2019-05-29T23:54:12.179Z,101790.00
2019-05-29T23:56:41.894Z,101796.00
2019-05-29T23:59:11.814Z,101801.00
